createdAt,value
2019-01-03T00:04:02.880Z,-0.24
2019-01-03T00:08:26.630Z,-0.22
2019-01-03T00:12:49.859Z,-0.22
2019-01-03T00:17:13.130Z,-0.20
2019-01-03T00:21:36.342Z,-0.17
2019-01-03T00:25:59.574Z,-0.16
2019-01-03T00:30:24.361Z,-0.17
2019-01-03T00:34:47.564Z,-0.16
2019-01-03T00:39:10.759Z,-0.18
2019-01-03T00:43:33.970Z,-0.19
2019-01-03T00:47:57.154Z,-0.20
2019-01-03T00:52:20.370Z,-0.20
2019-01-03T00:56:43.548Z,-0.16
2019-01-03T01:01:06.730Z,-0.21
2019-01-03T01:05:30.015Z,-0.40
2019-01-03T01:09:53.197Z,-0.50
2019-01-03T01:14:16.459Z,-0.48
2019-01-03T01:18:39.645Z,-0.48
2019-01-03T01:27:41.290Z,-0.40
2019-01-03T01:32:04.470Z,-0.37
2019-01-03T01:36:27.642Z,-0.40
2019-01-03T01:40:50.822Z,-0.42
2019-01-03T01:45:14.034Z,-0.49
2019-01-03T01:49:38.702Z,-0.53
2019-01-03T01:54:01.881Z,-0.50
2019-01-03T01:58:25.478Z,-0.52
2019-01-03T02:02:48.651Z,-0.52
2019-01-03T02:07:11.806Z,-0.51
2019-01-03T02:11:36.881Z,-0.50
2019-01-03T02:16:00.196Z,-0.51
2019-01-03T02:20:24.338Z,-0.55
2019-01-03T02:24:47.525Z,-0.76
2019-01-03T02:29:10.698Z,-0.77
2019-01-03T02:33:33.891Z,-0.70
2019-01-03T02:37:57.085Z,-0.66
2019-01-03T02:42:20.291Z,-0.68
2019-01-03T02:51:08.746Z,-0.64
2019-01-03T02:55:31.915Z,-0.63
2019-01-03T02:59:55.187Z,-0.63
2019-01-03T03:04:18.331Z,-0.68
2019-01-03T03:08:43.435Z,-0.70
2019-01-03T03:13:06.712Z,-0.70
2019-01-03T03:17:31.589Z,-0.74
2019-01-03T03:26:11.940Z,-0.81
2019-01-03T03:30:35.170Z,-0.74
2019-01-03T03:34:58.357Z,-0.67
2019-01-03T03:39:21.581Z,-0.63
2019-01-03T03:43:44.725Z,-0.61
2019-01-03T03:47:57.432Z,-0.57
2019-01-03T03:52:20.733Z,-0.53
2019-01-03T03:56:43.976Z,-0.46
2019-01-03T04:01:07.137Z,-0.43
2019-01-03T04:05:30.308Z,-0.38
2019-01-03T04:09:53.461Z,-0.33
2019-01-03T04:14:16.655Z,-0.29
2019-01-03T04:23:20.646Z,-0.34
2019-01-03T04:27:43.842Z,-0.31
2019-01-03T04:32:07.048Z,-0.28
2019-01-03T04:36:30.204Z,-0.27
2019-01-03T04:40:53.445Z,-0.25
2019-01-03T04:45:16.604Z,-0.22
2019-01-03T04:49:48.568Z,-0.20
2019-01-03T04:54:11.757Z,-0.19
2019-01-03T04:58:37.343Z,-0.21
2019-01-03T05:03:00.565Z,-0.20
2019-01-03T05:11:49.058Z,-0.23
2019-01-03T05:16:12.316Z,-0.22
2019-01-03T05:20:35.554Z,-0.20
2019-01-03T05:29:25.923Z,-0.22
2019-01-03T05:33:49.174Z,-0.24
2019-01-03T05:38:12.356Z,-0.26
2019-01-03T05:42:35.547Z,-0.25
2019-01-03T05:46:58.750Z,-0.23
2019-01-03T05:51:22.018Z,-0.21
2019-01-03T05:55:45.212Z,-0.21
2019-01-03T06:00:08.402Z,-0.21
2019-01-03T06:04:31.541Z,-0.22
2019-01-03T06:08:54.725Z,-0.25
2019-01-03T06:13:17.914Z,-0.29
2019-01-03T06:17:33.806Z,-0.26
2019-01-03T06:21:56.992Z,-0.29
2019-01-03T06:26:20.152Z,-0.31
2019-01-03T06:30:43.385Z,-0.28
2019-01-03T06:35:06.600Z,-0.28
2019-01-03T06:39:29.762Z,-0.29
2019-01-03T06:43:51.868Z,-0.28
2019-01-03T06:48:20.058Z,-0.29
2019-01-03T06:52:40.292Z,-0.28
2019-01-03T06:57:03.540Z,-0.29
2019-01-03T07:01:26.722Z,-0.26
2019-01-03T07:05:49.918Z,-0.24
2019-01-03T07:10:13.142Z,-0.23
2019-01-03T07:14:36.308Z,-0.18
2019-01-03T07:18:59.514Z,-0.17
2019-01-03T07:28:06.368Z,-0.08
2019-01-03T07:32:29.549Z,-0.07
2019-01-03T07:36:52.733Z,-0.08
2019-01-03T07:41:15.907Z,-0.05
2019-01-03T07:45:39.330Z,-0.06
2019-01-03T07:50:02.507Z,-0.03
2019-01-03T07:54:25.687Z,-0.01
2019-01-03T07:58:48.846Z,-0.01
2019-01-03T08:03:12.050Z,0.00
2019-01-03T08:07:35.251Z,0.02
2019-01-03T08:11:58.406Z,0.06
2019-01-03T08:16:21.583Z,0.09
2019-01-03T08:25:10.093Z,0.13
2019-01-03T08:29:33.245Z,0.20
2019-01-03T08:33:59.037Z,0.21
2019-01-03T08:38:23.329Z,0.25
2019-01-03T08:42:46.571Z,0.29
2019-01-03T08:47:09.875Z,0.32
2019-01-03T08:51:33.079Z,0.31
2019-01-03T08:55:56.237Z,0.28
2019-01-03T09:00:23.092Z,0.30
2019-01-03T09:04:46.270Z,0.36
2019-01-03T09:09:09.453Z,0.37
2019-01-03T09:13:34.451Z,0.40
2019-01-03T09:17:57.620Z,0.39
2019-01-03T09:22:20.823Z,0.41
2019-01-03T09:26:43.970Z,0.45
2019-01-03T09:31:07.195Z,0.42
2019-01-03T09:35:30.400Z,0.42
2019-01-03T09:39:53.996Z,0.36
2019-01-03T09:44:17.125Z,0.42
2019-01-03T09:48:21.377Z,0.53
2019-01-03T09:52:25.629Z,0.60
2019-01-03T09:56:29.890Z,0.66
2019-01-03T10:00:34.097Z,0.66
2019-01-03T10:04:38.360Z,0.66
2019-01-03T10:08:42.631Z,0.67
2019-01-03T10:12:47.015Z,0.69
2019-01-03T10:16:51.653Z,0.72
2019-01-03T10:20:55.921Z,0.73
2019-01-03T10:25:00.223Z,0.74
2019-01-03T10:29:04.697Z,0.81
2019-01-03T10:33:08.935Z,0.84
2019-01-03T10:37:13.158Z,0.86
2019-01-03T10:41:17.421Z,0.86
2019-01-03T10:45:21.718Z,0.91
2019-01-03T10:49:25.937Z,0.90
2019-01-03T10:53:30.205Z,0.96
2019-01-03T10:57:34.420Z,0.98
2019-01-03T11:01:38.694Z,1.00
2019-01-03T11:05:42.925Z,0.90
2019-01-03T11:09:47.214Z,0.88
2019-01-03T11:13:51.472Z,0.86
2019-01-03T11:17:55.776Z,0.88
2019-01-03T11:22:00.054Z,0.86
2019-01-03T11:26:04.328Z,0.96
2019-01-03T11:30:09.630Z,0.95
2019-01-03T11:34:13.944Z,0.94
2019-01-03T11:38:18.246Z,1.00
2019-01-03T11:42:22.473Z,1.06
2019-01-03T11:46:26.743Z,1.07
2019-01-03T11:50:31.014Z,1.09
2019-01-03T11:54:35.243Z,1.10
2019-01-03T11:58:39.526Z,1.11
2019-01-03T12:02:43.786Z,1.10
2019-01-03T12:06:48.385Z,1.12
2019-01-03T12:10:52.711Z,1.15
2019-01-03T12:14:57.572Z,1.16
2019-01-03T12:19:02.143Z,1.09
2019-01-03T12:23:06.566Z,1.08
2019-01-03T12:27:10.847Z,1.04
2019-01-03T12:31:15.094Z,1.05
2019-01-03T12:35:19.355Z,0.98
2019-01-03T12:39:23.627Z,0.90
2019-01-03T12:43:27.857Z,0.91
2019-01-03T12:47:32.106Z,0.89
2019-01-03T12:51:36.327Z,0.85
2019-01-03T12:55:40.590Z,0.85
2019-01-03T12:59:44.869Z,0.78
2019-01-03T13:03:49.147Z,0.65
2019-01-03T13:07:53.413Z,0.56
2019-01-03T13:11:57.627Z,0.50
2019-01-03T13:16:01.900Z,0.44
2019-01-03T13:20:06.776Z,0.41
2019-01-03T13:24:10.967Z,0.42
2019-01-03T13:32:25.334Z,0.47
2019-01-03T13:36:29.683Z,0.48
2019-01-03T13:40:33.942Z,0.48
2019-01-03T13:44:38.229Z,0.50
2019-01-03T13:48:42.679Z,0.51
2019-01-03T13:52:46.888Z,0.52
2019-01-03T13:56:51.154Z,0.52
2019-01-03T14:00:55.397Z,0.55
2019-01-03T14:04:59.678Z,0.56
2019-01-03T14:13:47.540Z,0.58
2019-01-03T14:17:51.819Z,0.63
2019-01-03T14:21:56.092Z,0.64
2019-01-03T14:26:00.329Z,0.65
2019-01-03T14:30:25.311Z,0.67
2019-01-03T14:34:48.623Z,0.66
2019-01-03T14:38:52.887Z,0.64
2019-01-03T14:42:57.163Z,0.58
2019-01-03T14:47:01.360Z,0.50
2019-01-03T14:51:05.604Z,0.37
2019-01-03T14:59:59.142Z,0.23
2019-01-03T15:04:03.408Z,0.21
2019-01-03T15:08:07.675Z,0.13
2019-01-03T15:12:11.925Z,0.09
2019-01-03T15:16:16.138Z,0.07
2019-01-03T15:20:20.411Z,0.08
2019-01-03T15:24:24.686Z,0.06
2019-01-03T15:28:28.941Z,0.02
2019-01-03T15:32:33.243Z,0.01
2019-01-03T15:36:37.516Z,-0.01
2019-01-03T15:40:41.747Z,0.02
2019-01-03T15:44:46.023Z,0.03
2019-01-03T15:48:50.293Z,-0.01
2019-01-03T15:52:54.547Z,-0.04
2019-01-03T15:56:58.970Z,-0.06
2019-01-03T16:01:03.962Z,-0.03
2019-01-03T16:05:08.662Z,-0.07
2019-01-03T16:09:12.890Z,-0.08
2019-01-03T16:13:17.163Z,-0.11
2019-01-03T16:17:21.435Z,-0.15
2019-01-03T16:21:25.686Z,-0.22
2019-01-03T16:25:29.946Z,-0.26
2019-01-03T16:29:34.212Z,-0.27
2019-01-03T16:33:38.481Z,-0.25
2019-01-03T16:37:42.776Z,-0.28
2019-01-03T16:41:47.002Z,-0.27
2019-01-03T16:45:51.277Z,-0.26
2019-01-03T16:49:56.091Z,-0.22
2019-01-03T16:54:01.594Z,-0.23
2019-01-03T16:58:05.896Z,-0.19
2019-01-03T17:02:10.166Z,-0.20
2019-01-03T17:06:14.454Z,-0.21
2019-01-03T17:10:19.289Z,-0.23
2019-01-03T17:14:23.542Z,-0.25
2019-01-03T17:18:27.805Z,-0.27
2019-01-03T17:22:32.124Z,-0.28
2019-01-03T17:26:36.492Z,-0.29
2019-01-03T17:30:41.068Z,-0.35
2019-01-03T17:34:45.373Z,-0.40
2019-01-03T17:38:49.686Z,-0.44
2019-01-03T17:42:53.953Z,-0.48
2019-01-03T17:46:58.240Z,-0.49
2019-01-03T17:51:02.905Z,-0.56
2019-01-03T17:55:08.185Z,-0.58
2019-01-03T17:59:12.493Z,-0.59
2019-01-03T18:03:16.747Z,-0.62
2019-01-03T18:07:21.020Z,-0.64
2019-01-03T18:11:25.277Z,-0.70
2019-01-03T18:15:29.658Z,-0.70
2019-01-03T18:19:33.959Z,-0.71
2019-01-03T18:23:38.517Z,-0.74
2019-01-03T18:27:42.797Z,-0.78
2019-01-03T18:31:47.020Z,-0.76
2019-01-03T18:35:51.552Z,-0.80
2019-01-03T18:39:55.880Z,-0.81
2019-01-03T18:44:00.163Z,-0.82
2019-01-03T18:48:04.466Z,-0.84
2019-01-03T18:52:08.705Z,-0.85
2019-01-03T18:56:12.987Z,-0.87
2019-01-03T19:00:17.252Z,-0.87
2019-01-03T19:04:21.477Z,-0.89
2019-01-03T19:08:25.829Z,-0.92
2019-01-03T19:12:30.105Z,-0.97
2019-01-03T19:16:34.371Z,-0.98
2019-01-03T19:20:38.654Z,-1.01
2019-01-03T19:24:42.914Z,-1.01
2019-01-03T19:28:47.250Z,-1.02
2019-01-03T19:32:51.520Z,-1.01
2019-01-03T19:36:55.809Z,-1.01
2019-01-03T19:41:00.034Z,-1.03
2019-01-03T19:45:04.393Z,-1.06
2019-01-03T19:49:08.690Z,-1.05
2019-01-03T19:53:13.266Z,-1.06
2019-01-03T19:57:17.478Z,-1.13
2019-01-03T20:01:21.735Z,-1.17
2019-01-03T20:05:26.142Z,-1.17
2019-01-03T20:09:30.417Z,-1.20
2019-01-03T20:13:34.699Z,-1.20
2019-01-03T20:17:57.993Z,-1.21
2019-01-03T20:22:02.403Z,-1.24
2019-01-03T20:26:44.792Z,-1.28
2019-01-03T20:30:49.149Z,-1.29
2019-01-03T20:35:12.415Z,-1.36
2019-01-03T20:39:19.070Z,-1.37
2019-01-03T20:48:14.645Z,-1.34
2019-01-03T20:52:20.603Z,-1.30
2019-01-03T20:56:26.971Z,-1.29
2019-01-03T21:00:34.068Z,-1.31
2019-01-03T21:04:40.708Z,-1.30
2019-01-03T21:08:45.495Z,-1.32
2019-01-03T21:12:49.832Z,-1.31
2019-01-03T21:16:54.247Z,-1.30
2019-01-03T21:20:58.858Z,-1.26
2019-01-03T21:25:03.262Z,-1.25
2019-01-03T21:29:07.555Z,-1.23
2019-01-03T21:33:11.923Z,-1.21
2019-01-03T21:37:16.226Z,-1.23
2019-01-03T21:41:20.608Z,-1.26
2019-01-03T21:45:25.011Z,-1.24
2019-01-03T21:49:29.407Z,-1.25
2019-01-03T21:53:34.149Z,-1.26
2019-01-03T21:57:38.535Z,-1.25
2019-01-03T22:01:42.822Z,-1.26
2019-01-03T22:05:47.120Z,-1.24
2019-01-03T22:09:51.368Z,-1.22
2019-01-03T22:13:55.670Z,-1.23
2019-01-03T22:18:00.263Z,-1.20
2019-01-03T22:22:04.483Z,-1.17
2019-01-03T22:26:08.749Z,-1.11
2019-01-03T22:30:13.135Z,-1.09
2019-01-03T22:34:17.403Z,-1.09
2019-01-03T22:38:21.695Z,-1.07
2019-01-03T22:42:25.983Z,-1.09
2019-01-03T22:46:30.201Z,-1.09
2019-01-03T22:50:34.529Z,-1.08
2019-01-03T22:54:38.809Z,-1.06
2019-01-03T22:58:43.041Z,-1.08
2019-01-03T23:02:47.326Z,-1.09
2019-01-03T23:06:51.589Z,-1.15
2019-01-03T23:10:55.918Z,-1.09
2019-01-03T23:15:00.220Z,-1.10
2019-01-03T23:19:04.431Z,-1.10
2019-01-03T23:23:08.718Z,-1.06
2019-01-03T23:27:12.931Z,-1.09
2019-01-03T23:31:17.195Z,-1.14
2019-01-03T23:35:21.689Z,-1.18
2019-01-03T23:39:25.945Z,-1.19
2019-01-03T23:43:30.192Z,-1.20
2019-01-03T23:47:34.485Z,-1.26
2019-01-03T23:51:38.809Z,-1.24
